MPTOSKCG

Guest
Details From MPTO - Tocumen Intl
To SKCG - RAFAEL NUNEZ
Flight Number -
Tags generated
Created
Modified
Stats Distance 247 nm / 457 km
Max Altitude 25,900 ft / 7,894 m
Waypoints 5
Social Downloads 0
Likes 0
Share VATSIM

Download

Looking for another format? Having issues loading an existing format? Contact us
Advertisement - Login to hide

Notes

Basic altitude profile: - Ascent Rate: 2500ft/min - Ascent Speed: 250kts - Cruise Altitude: 35000ft - Cruise Speed: 420kts - Descent Rate: 1500ft/min - Descent Speed: 250kts Options: - Use NATs: yes - Use PACOTS: yes - Use low airways: yes - Use high airways: yes

Route

MPTO PONPO UA574 BOGAL A574 DETOK SKCG

ID Type Via Altitude Latitude Longitude Leg Dist Tot Dist Heading (true) Name
O MPTO APT - 0 ft / 0 m 9.07136˚ -79.38346˚ - 0 nm - Tocumen Intl
PONPO FIX - 25,400 ft / 7,742 m 9.27011˚ -78.19944˚ 71 nm 71 nm 80° / 80° -
BOGAL FIX UA574 (AWY-HI) 25,900 ft / 7,894 m 9.56794˚ -77.41642˚ 49 nm 120 nm 69° / 69° -
DETOK FIX A574 (AWY-LO) 8,600 ft / 2,621 m 10.02306˚ -76.04667˚ 85 nm 206 nm 71° / 71° -
O SKCG APT - 0 ft / 0 m 10.44238˚ -75.51296˚ 40 nm 246 nm 51° / 51° RAFAEL NUNEZ

Altitude Profile

Advertisement - Login to hide

Weather


0- 5 10 15 20 25 30 35+ Temperature / ° C

Clouds and Precipitation
Forecast for 2018-05-22 12:00 UTC. Updated an hour ago

Ground ~20,000 ft ~40,000 ft Winds

MPTO

Details ICAO MPTO (PTY)
Name Tocumen Intl
Region Panama
Timezone America/Panama (UTC-5.0)
Stats Elevation 135 ft / 41 m (AMSL)
Location 9.071364° -79.383458°
Runways 2
Magnetic Variation 4.593° W

METAR

MPTO 221200Z 35005KT 6000 RA SCT003 SCT015 BKN060 24/24 Q1010 RWY WATER PACTHES NOSIG

Decode

TAF

TAF MPTO 221100Z 2212/2318 04005KT 7000 RA FEW008 SCT015CB BKN080 TEMPO 2215/2219 9000 SCT018 BKN090 PROB30 TEMPO 2219/2223 18006KT 5000 TSRA FEW012CB SCT016 BKN080 TEMPO 2223/2303 VRB02KT 9999 SCT018 SCT090

Decode

Departure Runways

ID Width Length Bearing (true) Bearing (mag) Surface Threshold Offset Overrun Length
03L 200 ft / 61 m 8,798 ft / 2,682 m 30.67° 35.26° Asphalt 0 ft / 0 m 0 ft / 0 m
03R 148 ft / 45 m 10,008 ft / 3,051 m 29.33° 33.92° Concrete 0 ft / 0 m 198 ft / 60 m
21L 148 ft / 45 m 10,008 ft / 3,051 m 209.33° 213.92° Concrete 0 ft / 0 m 198 ft / 60 m
21R 200 ft / 61 m 8,798 ft / 2,682 m 210.67° 215.26° Asphalt 0 ft / 0 m 0 ft / 0 m

SKCG

Details ICAO SKCG (CTG)
Name RAFAEL NUNEZ
Region Colombia
Timezone America/Bogota (UTC-5.0)
Stats Elevation 4 ft / 1 m (AMSL)
Location 10.442379° -75.512961°
Runways 1
Magnetic Variation 7.261° W

METAR

SKCG 221200Z 07003KT 010V120 9999 FEW010 BKN070 26/25 A2985

Decode

TAF

Not found

Destination Runways

ID Width Length Bearing (true) Bearing (mag) Surface Threshold Offset Overrun Length
01 148 ft / 45 m 8,584 ft / 2,616 m 2.31° 9.57° Asphalt 0 ft / 0 m 180 ft / 55 m
19 148 ft / 45 m 8,584 ft / 2,616 m 182.31° 189.57° Asphalt 190 ft / 58 m 0 ft / 0 m

Popular Alternatives